sensor_id;sensor_type;location;lat;lon;timestamp;P1;durP1;ratioP1;P2;durP2;ratioP2
31786;SDS011;18356;52.380;9.820;2022-08-02T00:01:47;9.63;;;3.78;;
31786;SDS011;18356;52.380;9.820;2022-08-02T00:04:13;12.73;;;3.60;;
31786;SDS011;18356;52.380;9.820;2022-08-02T00:06:39;11.40;;;3.83;;
31786;SDS011;18356;52.380;9.820;2022-08-02T00:09:06;9.05;;;3.55;;
31786;SDS011;18356;52.380;9.820;2022-08-02T00:11:32;9.65;;;3.72;;
31786;SDS011;18356;52.380;9.820;2022-08-02T00:13:58;8.50;;;3.40;;
31786;SDS011;18356;52.380;9.820;2022-08-02T00:16:24;11.68;;;3.80;;
31786;SDS011;18356;52.380;9.820;2022-08-02T00:18:50;7.53;;;3.42;;
31786;SDS011;18356;52.380;9.820;2022-08-02T00:21:16;11.23;;;4.13;;
31786;SDS011;18356;52.380;9.820;2022-08-02T00:23:42;10.32;;;3.70;;
31786;SDS011;18356;52.380;9.820;2022-08-02T00:26:08;14.77;;;3.95;;
31786;SDS011;18356;52.380;9.820;2022-08-02T00:28:35;10.20;;;3.65;;
31786;SDS011;18356;52.380;9.820;2022-08-02T00:31:01;11.55;;;3.88;;
31786;SDS011;18356;52.380;9.820;2022-08-02T00:33:27;8.75;;;3.47;;
31786;SDS011;18356;52.380;9.820;2022-08-02T00:35:53;8.45;;;3.45;;
31786;SDS011;18356;52.380;9.820;2022-08-02T00:38:19;11.07;;;4.13;;
31786;SDS011;18356;52.380;9.820;2022-08-02T00:40:45;10.48;;;3.78;;
31786;SDS011;18356;52.380;9.820;2022-08-02T00:43:12;9.75;;;3.63;;
31786;SDS011;18356;52.380;9.820;2022-08-02T00:45:40;15.40;;;4.20;;
31786;SDS011;18356;52.380;9.820;2022-08-02T00:48:06;8.68;;;3.92;;
31786;SDS011;18356;52.380;9.820;2022-08-02T00:50:33;12.40;;;3.80;;
31786;SDS011;18356;52.380;9.820;2022-08-02T00:52:59;11.07;;;3.75;;
31786;SDS011;18356;52.380;9.820;2022-08-02T00:55:26;9.63;;;3.53;;
31786;SDS011;18356;52.380;9.820;2022-08-02T00:57:52;12.43;;;4.53;;
31786;SDS011;18356;52.380;9.820;2022-08-02T01:00:18;13.60;;;4.20;;
31786;SDS011;18356;52.380;9.820;2022-08-02T01:02:45;9.13;;;3.53;;
31786;SDS011;18356;52.380;9.820;2022-08-02T01:05:11;9.95;;;4.03;;
31786;SDS011;18356;52.380;9.820;2022-08-02T01:07:37;12.77;;;3.95;;
31786;SDS011;18356;52.380;9.820;2022-08-02T01:10:03;9.13;;;3.80;;
31786;SDS011;18356;52.380;9.820;2022-08-02T01:12:30;12.13;;;4.03;;
31786;SDS011;18356;52.380;9.820;2022-08-02T01:14:57;11.35;;;4.00;;
31786;SDS011;18356;52.380;9.820;2022-08-02T01:17:31;9.55;;;3.95;;
31786;SDS011;18356;52.380;9.820;2022-08-02T01:25:12;12.00;;;4.53;;
31786;SDS011;18356;52.380;9.820;2022-08-02T01:30:24;9.75;;;4.03;;
31786;SDS011;18356;52.380;9.820;2022-08-02T01:32:52;11.98;;;4.20;;
31786;SDS011;18356;52.380;9.820;2022-08-02T01:35:41;8.57;;;3.88;;
31786;SDS011;18356;52.380;9.820;2022-08-02T01:38:08;8.00;;;4.10;;
31786;SDS011;18356;52.380;9.820;2022-08-02T01:40:35;11.60;;;4.25;;
31786;SDS011;18356;52.380;9.820;2022-08-02T01:43:02;12.35;;;4.30;;
31786;SDS011;18356;52.380;9.820;2022-08-02T01:45:29;9.98;;;4.47;;
31786;SDS011;18356;52.380;9.820;2022-08-02T01:47:57;8.40;;;4.32;;
31786;SDS011;18356;52.380;9.820;2022-08-02T01:50:25;15.87;;;4.63;;
31786;SDS011;18356;52.380;9.820;2022-08-02T01:52:54;14.68;;;4.15;;
31786;SDS011;18356;52.380;9.820;2022-08-02T01:55:21;9.35;;;4.25;;
31786;SDS011;18356;52.380;9.820;2022-08-02T01:57:48;13.43;;;4.85;;
31786;SDS011;18356;52.380;9.820;2022-08-02T02:00:15;7.95;;;4.15;;
31786;SDS011;18356;52.380;9.820;2022-08-02T02:02:42;9.10;;;3.95;;
31786;SDS011;18356;52.380;9.820;2022-08-02T02:05:13;10.65;;;4.07;;
31786;SDS011;18356;52.380;9.820;2022-08-02T02:07:40;7.40;;;3.90;;
31786;SDS011;18356;52.380;9.820;2022-08-02T02:10:07;11.43;;;3.97;;
31786;SDS011;18356;52.380;9.820;2022-08-02T02:12:34;10.55;;;4.15;;
31786;SDS011;18356;52.380;9.820;2022-08-02T02:15:01;11.35;;;4.53;;
31786;SDS011;18356;52.380;9.820;2022-08-02T02:17:28;12.23;;;4.17;;
31786;SDS011;18356;52.380;9.820;2022-08-02T02:19:56;6.55;;;3.85;;
31786;SDS011;18356;52.380;9.820;2022-08-02T02:22:23;10.98;;;4.03;;
31786;SDS011;18356;52.380;9.820;2022-08-02T02:24:49;9.17;;;4.17;;
31786;SDS011;18356;52.380;9.820;2022-08-02T02:27:15;7.80;;;3.97;;
31786;SDS011;18356;52.380;9.820;2022-08-02T02:29:43;10.13;;;4.60;;
31786;SDS011;18356;52.380;9.820;2022-08-02T02:32:09;10.82;;;4.32;;
31786;SDS011;18356;52.380;9.820;2022-08-02T02:34:37;10.10;;;4.47;;
31786;SDS011;18356;52.380;9.820;2022-08-02T02:37:07;12.30;;;4.57;;
31786;SDS011;18356;52.380;9.820;2022-08-02T02:39:35;13.15;;;4.10;;
31786;SDS011;18356;52.380;9.820;2022-08-02T02:42:05;9.23;;;3.88;;
31786;SDS011;18356;52.380;9.820;2022-08-02T02:44:32;9.40;;;4.40;;
31786;SDS011;18356;52.380;9.820;2022-08-02T02:46:59;10.20;;;3.90;;
31786;SDS011;18356;52.380;9.820;2022-08-02T02:49:26;10.45;;;4.50;;
31786;SDS011;18356;52.380;9.820;2022-08-02T02:51:56;9.00;;;4.47;;
31786;SDS011;18356;52.380;9.820;2022-08-02T02:54:22;13.63;;;4.82;;
31786;SDS011;18356;52.380;9.820;2022-08-02T02:56:48;8.77;;;4.35;;
31786;SDS011;18356;52.380;9.820;2022-08-02T02:59:15;8.95;;;4.00;;
31786;SDS011;18356;52.380;9.820;2022-08-02T03:01:41;8.90;;;4.67;;
31786;SDS011;18356;52.380;9.820;2022-08-02T03:04:08;9.23;;;4.10;;
31786;SDS011;18356;52.380;9.820;2022-08-02T03:06:35;9.90;;;4.10;;
31786;SDS011;18356;52.380;9.820;2022-08-02T03:09:02;8.97;;;3.90;;
31786;SDS011;18356;52.380;9.820;2022-08-02T03:11:29;9.93;;;4.53;;
31786;SDS011;18356;52.380;9.820;2022-08-02T03:13:58;11.73;;;4.07;;
31786;SDS011;18356;52.380;9.820;2022-08-02T03:16:25;6.13;;;3.67;;
31786;SDS011;18356;52.380;9.820;2022-08-02T03:18:55;9.60;;;4.00;;
31786;SDS011;18356;52.380;9.820;2022-08-02T03:21:21;10.67;;;4.73;;
31786;SDS011;18356;52.380;9.820;2022-08-02T03:23:48;8.23;;;3.50;;
31786;SDS011;18356;52.380;9.820;2022-08-02T03:26:14;7.70;;;4.03;;
31786;SDS011;18356;52.380;9.820;2022-08-02T03:28:40;8.60;;;3.78;;
31786;SDS011;18356;52.380;9.820;2022-08-02T03:31:07;7.93;;;3.80;;
31786;SDS011;18356;52.380;9.820;2022-08-02T03:33:33;9.20;;;4.10;;
31786;SDS011;18356;52.380;9.820;2022-08-02T03:36:01;8.77;;;3.90;;
31786;SDS011;18356;52.380;9.820;2022-08-02T03:38:28;10.17;;;3.90;;
31786;SDS011;18356;52.380;9.820;2022-08-02T03:40:55;10.67;;;3.70;;
31786;SDS011;18356;52.380;9.820;2022-08-02T03:43:21;7.27;;;3.93;;
31786;SDS011;18356;52.380;9.820;2022-08-02T03:45:48;9.15;;;4.05;;
31786;SDS011;18356;52.380;9.820;2022-08-02T03:48:15;7.93;;;3.83;;
31786;SDS011;18356;52.380;9.820;2022-08-02T03:50:41;10.23;;;4.93;;
31786;SDS011;18356;52.380;9.820;2022-08-02T03:53:08;11.60;;;4.40;;
31786;SDS011;18356;52.380;9.820;2022-08-02T03:55:34;10.83;;;4.87;;
31786;SDS011;18356;52.380;9.820;2022-08-02T03:58:01;8.90;;;4.40;;
31786;SDS011;18356;52.380;9.820;2022-08-02T04:00:27;10.67;;;4.33;;
31786;SDS011;18356;52.380;9.820;2022-08-02T04:02:53;11.27;;;4.30;;
31786;SDS011;18356;52.380;9.820;2022-08-02T04:05:20;17.73;;;4.30;;
31786;SDS011;18356;52.380;9.820;2022-08-02T04:07:46;9.70;;;4.28;;
31786;SDS011;18356;52.380;9.820;2022-08-02T04:10:13;13.43;;;6.00;;
31786;SDS011;18356;52.380;9.820;2022-08-02T04:12:39;10.70;;;4.83;;
31786;SDS011;18356;52.380;9.820;2022-08-02T04:15:06;10.70;;;4.13;;
31786;SDS011;18356;52.380;9.820;2022-08-02T04:17:34;11.43;;;4.47;;
31786;SDS011;18356;52.380;9.820;2022-08-02T04:20:09;14.23;;;4.63;;
31786;SDS011;18356;52.380;9.820;2022-08-02T04:22:42;12.88;;;4.65;;
31786;SDS011;18356;52.380;9.820;2022-08-02T04:25:10;17.13;;;4.13;;
31786;SDS011;18356;52.380;9.820;2022-08-02T04:27:36;10.93;;;4.40;;
31786;SDS011;18356;52.380;9.820;2022-08-02T04:30:03;12.87;;;4.13;;
31786;SDS011;18356;52.380;9.820;2022-08-02T04:32:30;8.90;;;4.15;;
31786;SDS011;18356;52.380;9.820;2022-08-02T04:34:57;9.77;;;4.50;;
31786;SDS011;18356;52.380;9.820;2022-08-02T04:37:24;13.90;;;4.07;;
31786;SDS011;18356;52.380;9.820;2022-08-02T04:39:50;14.30;;;4.43;;
31786;SDS011;18356;52.380;9.820;2022-08-02T04:42:23;16.42;;;4.88;;
31786;SDS011;18356;52.380;9.820;2022-08-02T04:44:50;12.48;;;4.82;;
31786;SDS011;18356;52.380;9.820;2022-08-02T04:47:16;21.55;;;4.80;;
31786;SDS011;18356;52.380;9.820;2022-08-02T04:49:42;9.27;;;4.43;;
31786;SDS011;18356;52.380;9.820;2022-08-02T04:52:08;13.45;;;5.13;;
31786;SDS011;18356;52.380;9.820;2022-08-02T04:54:34;16.23;;;5.18;;
31786;SDS011;18356;52.380;9.820;2022-08-02T04:57:00;13.60;;;4.55;;
31786;SDS011;18356;52.380;9.820;2022-08-02T04:59:46;10.27;;;4.75;;
31786;SDS011;18356;52.380;9.820;2022-08-02T05:02:13;16.20;;;4.90;;
31786;SDS011;18356;52.380;9.820;2022-08-02T05:04:39;14.05;;;5.20;;
31786;SDS011;18356;52.380;9.820;2022-08-02T05:07:05;11.07;;;4.97;;
31786;SDS011;18356;52.380;9.820;2022-08-02T05:09:31;16.55;;;5.18;;
31786;SDS011;18356;52.380;9.820;2022-08-02T05:11:57;14.40;;;4.97;;
31786;SDS011;18356;52.380;9.820;2022-08-02T05:14:23;13.77;;;5.40;;
31786;SDS011;18356;52.380;9.820;2022-08-02T05:16:50;11.38;;;4.85;;
31786;SDS011;18356;52.380;9.820;2022-08-02T05:19:16;16.55;;;5.85;;
31786;SDS011;18356;52.380;9.820;2022-08-02T05:21:42;15.15;;;5.18;;
31786;SDS011;18356;52.380;9.820;2022-08-02T05:24:09;20.10;;;5.90;;
31786;SDS011;18356;52.380;9.820;2022-08-02T05:26:35;14.18;;;4.65;;
31786;SDS011;18356;52.380;9.820;2022-08-02T05:29:01;16.27;;;5.38;;
31786;SDS011;18356;52.380;9.820;2022-08-02T05:31:28;12.82;;;4.38;;
31786;SDS011;18356;52.380;9.820;2022-08-02T05:33:54;15.80;;;5.32;;
31786;SDS011;18356;52.380;9.820;2022-08-02T05:36:20;14.48;;;4.63;;
31786;SDS011;18356;52.380;9.820;2022-08-02T05:38:46;12.88;;;5.00;;
31786;SDS011;18356;52.380;9.820;2022-08-02T05:41:14;19.05;;;4.50;;
31786;SDS011;18356;52.380;9.820;2022-08-02T05:43:42;11.82;;;4.38;;
31786;SDS011;18356;52.380;9.820;2022-08-02T05:46:08;14.05;;;4.55;;
31786;SDS011;18356;52.380;9.820;2022-08-02T05:48:34;18.42;;;5.13;;
31786;SDS011;18356;52.380;9.820;2022-08-02T05:51:10;14.85;;;4.38;;
31786;SDS011;18356;52.380;9.820;2022-08-02T05:53:39;11.32;;;4.30;;
31786;SDS011;18356;52.380;9.820;2022-08-02T05:56:08;9.95;;;4.15;;
31786;SDS011;18356;52.380;9.820;2022-08-02T05:58:48;15.82;;;4.82;;
31786;SDS011;18356;52.380;9.820;2022-08-02T06:01:16;13.15;;;4.78;;
31786;SDS011;18356;52.380;9.820;2022-08-02T06:03:51;15.93;;;4.93;;
31786;SDS011;18356;52.380;9.820;2022-08-02T06:06:20;14.93;;;4.22;;
31786;SDS011;18356;52.380;9.820;2022-08-02T06:08:50;13.77;;;4.00;;
31786;SDS011;18356;52.380;9.820;2022-08-02T06:11:17;15.40;;;4.07;;
31786;SDS011;18356;52.380;9.820;2022-08-02T06:13:45;14.02;;;4.05;;
31786;SDS011;18356;52.380;9.820;2022-08-02T06:16:12;14.13;;;3.85;;
31786;SDS011;18356;52.380;9.820;2022-08-02T06:18:41;15.63;;;3.92;;
31786;SDS011;18356;52.380;9.820;2022-08-02T06:21:08;13.95;;;3.58;;
31786;SDS011;18356;52.380;9.820;2022-08-02T06:23:38;11.13;;;3.58;;
31786;SDS011;18356;52.380;9.820;2022-08-02T06:26:06;11.60;;;3.40;;
31786;SDS011;18356;52.380;9.820;2022-08-02T06:28:36;10.10;;;3.03;;
31786;SDS011;18356;52.380;9.820;2022-08-02T06:31:03;11.90;;;3.63;;
31786;SDS011;18356;52.380;9.820;2022-08-02T06:33:30;11.80;;;3.83;;
31786;SDS011;18356;52.380;9.820;2022-08-02T06:38:26;17.23;;;4.00;;
31786;SDS011;18356;52.380;9.820;2022-08-02T06:40:55;10.98;;;3.40;;
31786;SDS011;18356;52.380;9.820;2022-08-02T06:43:30;9.45;;;3.35;;
31786;SDS011;18356;52.380;9.820;2022-08-02T06:45:58;12.57;;;3.47;;
31786;SDS011;18356;52.380;9.820;2022-08-02T06:48:24;12.35;;;3.10;;
31786;SDS011;18356;52.380;9.820;2022-08-02T06:50:50;13.40;;;3.00;;
31786;SDS011;18356;52.380;9.820;2022-08-02T06:53:16;14.73;;;3.13;;
31786;SDS011;18356;52.380;9.820;2022-08-02T06:55:42;10.80;;;2.88;;
31786;SDS011;18356;52.380;9.820;2022-08-02T06:58:08;12.43;;;3.08;;
31786;SDS011;18356;52.380;9.820;2022-08-02T07:00:35;13.95;;;3.03;;
31786;SDS011;18356;52.380;9.820;2022-08-02T07:03:01;13.02;;;3.13;;
31786;SDS011;18356;52.380;9.820;2022-08-02T07:05:27;15.10;;;3.88;;
31786;SDS011;18356;52.380;9.820;2022-08-02T07:07:54;13.93;;;3.05;;
31786;SDS011;18356;52.380;9.820;2022-08-02T07:10:20;13.23;;;2.90;;
31786;SDS011;18356;52.380;9.820;2022-08-02T07:12:47;12.73;;;2.95;;
31786;SDS011;18356;52.380;9.820;2022-08-02T07:15:13;12.27;;;3.08;;
31786;SDS011;18356;52.380;9.820;2022-08-02T07:17:40;9.70;;;2.90;;
31786;SDS011;18356;52.380;9.820;2022-08-02T07:20:07;9.50;;;3.10;;
31786;SDS011;18356;52.380;9.820;2022-08-02T07:22:34;11.82;;;3.25;;
31786;SDS011;18356;52.380;9.820;2022-08-02T07:25:00;10.32;;;3.10;;
31786;SDS011;18356;52.380;9.820;2022-08-02T07:27:27;12.43;;;2.70;;
31786;SDS011;18356;52.380;9.820;2022-08-02T07:29:53;15.20;;;3.22;;
31786;SDS011;18356;52.380;9.820;2022-08-02T07:32:21;24.02;;;2.85;;
31786;SDS011;18356;52.380;9.820;2022-08-02T07:34:47;12.57;;;3.20;;
31786;SDS011;18356;52.380;9.820;2022-08-02T07:37:14;14.48;;;3.10;;
31786;SDS011;18356;52.380;9.820;2022-08-02T07:39:40;14.18;;;2.83;;
31786;SDS011;18356;52.380;9.820;2022-08-02T07:42:06;9.88;;;2.92;;
31786;SDS011;18356;52.380;9.820;2022-08-02T07:44:33;12.02;;;3.22;;
31786;SDS011;18356;52.380;9.820;2022-08-02T07:47:03;10.60;;;3.00;;
31786;SDS011;18356;52.380;9.820;2022-08-02T07:49:29;10.45;;;2.60;;
31786;SDS011;18356;52.380;9.820;2022-08-02T07:51:55;11.82;;;2.78;;
31786;SDS011;18356;52.380;9.820;2022-08-02T07:54:21;16.33;;;3.33;;
31786;SDS011;18356;52.380;9.820;2022-08-02T07:56:48;16.13;;;3.70;;
31786;SDS011;18356;52.380;9.820;2022-08-02T07:59:14;10.95;;;2.95;;
31786;SDS011;18356;52.380;9.820;2022-08-02T08:01:40;13.05;;;3.15;;
31786;SDS011;18356;52.380;9.820;2022-08-02T08:04:07;13.07;;;3.80;;
31786;SDS011;18356;52.380;9.820;2022-08-02T08:06:33;11.25;;;3.28;;
31786;SDS011;18356;52.380;9.820;2022-08-02T08:08:59;9.48;;;2.92;;
31786;SDS011;18356;52.380;9.820;2022-08-02T08:11:25;13.32;;;3.28;;
31786;SDS011;18356;52.380;9.820;2022-08-02T08:13:51;12.27;;;3.05;;
31786;SDS011;18356;52.380;9.820;2022-08-02T08:16:17;13.27;;;3.15;;
31786;SDS011;18356;52.380;9.820;2022-08-02T08:18:44;7.97;;;2.80;;
31786;SDS011;18356;52.380;9.820;2022-08-02T08:21:10;10.52;;;3.15;;
31786;SDS011;18356;52.380;9.820;2022-08-02T08:23:36;11.93;;;3.28;;
31786;SDS011;18356;52.380;9.820;2022-08-02T08:26:02;8.73;;;2.90;;
31786;SDS011;18356;52.380;9.820;2022-08-02T08:28:29;11.70;;;2.95;;
31786;SDS011;18356;52.380;9.820;2022-08-02T08:30:55;14.68;;;3.22;;
31786;SDS011;18356;52.380;9.820;2022-08-02T08:33:21;9.27;;;2.33;;
31786;SDS011;18356;52.380;9.820;2022-08-02T08:35:47;12.55;;;3.03;;
31786;SDS011;18356;52.380;9.820;2022-08-02T08:38:13;12.25;;;2.97;;
31786;SDS011;18356;52.380;9.820;2022-08-02T08:40:40;10.07;;;3.00;;
31786;SDS011;18356;52.380;9.820;2022-08-02T08:43:06;10.35;;;2.83;;
31786;SDS011;18356;52.380;9.820;2022-08-02T08:45:32;9.23;;;2.90;;
31786;SDS011;18356;52.380;9.820;2022-08-02T08:48:31;9.23;;;2.67;;
31786;SDS011;18356;52.380;9.820;2022-08-02T08:51:00;9.68;;;2.75;;
31786;SDS011;18356;52.380;9.820;2022-08-02T08:53:28;8.57;;;2.20;;
31786;SDS011;18356;52.380;9.820;2022-08-02T08:55:56;10.60;;;2.90;;
31786;SDS011;18356;52.380;9.820;2022-08-02T08:58:22;11.25;;;2.88;;
31786;SDS011;18356;52.380;9.820;2022-08-02T09:00:50;12.60;;;2.67;;
31786;SDS011;18356;52.380;9.820;2022-08-02T09:03:16;18.67;;;3.17;;
31786;SDS011;18356;52.380;9.820;2022-08-02T09:05:42;9.27;;;2.70;;
31786;SDS011;18356;52.380;9.820;2022-08-02T09:08:10;9.50;;;2.53;;
31786;SDS011;18356;52.380;9.820;2022-08-02T09:10:44;9.48;;;2.50;;
31786;SDS011;18356;52.380;9.820;2022-08-02T09:13:11;9.40;;;2.47;;
31786;SDS011;18356;52.380;9.820;2022-08-02T09:15:40;7.47;;;2.30;;
31786;SDS011;18356;52.380;9.820;2022-08-02T09:18:07;7.38;;;2.35;;
31786;SDS011;18356;52.380;9.820;2022-08-02T09:20:34;11.43;;;2.25;;
31786;SDS011;18356;52.380;9.820;2022-08-02T09:23:08;8.80;;;2.40;;
31786;SDS011;18356;52.380;9.820;2022-08-02T09:25:35;7.50;;;2.00;;
31786;SDS011;18356;52.380;9.820;2022-08-02T09:28:03;7.82;;;2.00;;
31786;SDS011;18356;52.380;9.820;2022-08-02T09:30:29;9.20;;;2.03;;
31786;SDS011;18356;52.380;9.820;2022-08-02T09:32:55;7.55;;;1.95;;
31786;SDS011;18356;52.380;9.820;2022-08-02T09:35:36;7.28;;;2.10;;
31786;SDS011;18356;52.380;9.820;2022-08-02T09:38:09;6.55;;;1.88;;
31786;SDS011;18356;52.380;9.820;2022-08-02T09:40:36;6.63;;;2.17;;
31786;SDS011;18356;52.380;9.820;2022-08-02T09:43:03;8.25;;;2.20;;
31786;SDS011;18356;52.380;9.820;2022-08-02T09:45:32;7.05;;;2.15;;
31786;SDS011;18356;52.380;9.820;2022-08-02T09:48:02;6.18;;;2.55;;
31786;SDS011;18356;52.380;9.820;2022-08-02T09:50:31;9.18;;;2.28;;
31786;SDS011;18356;52.380;9.820;2022-08-02T09:52:57;6.72;;;2.47;;
31786;SDS011;18356;52.380;9.820;2022-08-02T09:55:24;10.13;;;2.00;;
31786;SDS011;18356;52.380;9.820;2022-08-02T09:57:51;6.20;;;1.90;;
31786;SDS011;18356;52.380;9.820;2022-08-02T10:00:17;7.20;;;1.58;;
31786;SDS011;18356;52.380;9.820;2022-08-02T10:05:29;5.88;;;2.10;;
31786;SDS011;18356;52.380;9.820;2022-08-02T10:07:55;6.60;;;1.92;;
31786;SDS011;18356;52.380;9.820;2022-08-02T10:10:22;5.30;;;1.83;;
31786;SDS011;18356;52.380;9.820;2022-08-02T10:12:48;5.45;;;2.20;;
31786;SDS011;18356;52.380;9.820;2022-08-02T10:15:15;6.03;;;1.77;;
31786;SDS011;18356;52.380;9.820;2022-08-02T10:17:41;6.05;;;1.98;;
31786;SDS011;18356;52.380;9.820;2022-08-02T10:20:08;7.82;;;1.80;;
31786;SDS011;18356;52.380;9.820;2022-08-02T10:22:35;6.90;;;1.80;;
31786;SDS011;18356;52.380;9.820;2022-08-02T10:25:02;5.95;;;1.85;;
31786;SDS011;18356;52.380;9.820;2022-08-02T10:27:29;5.30;;;1.73;;
31786;SDS011;18356;52.380;9.820;2022-08-02T10:29:56;7.07;;;1.70;;
31786;SDS011;18356;52.380;9.820;2022-08-02T10:32:27;9.05;;;1.60;;
31786;SDS011;18356;52.380;9.820;2022-08-02T10:34:59;7.45;;;1.70;;
31786;SDS011;18356;52.380;9.820;2022-08-02T10:37:28;6.38;;;2.00;;
31786;SDS011;18356;52.380;9.820;2022-08-02T10:39:56;5.93;;;1.60;;
31786;SDS011;18356;52.380;9.820;2022-08-02T10:45:07;4.60;;;1.50;;
31786;SDS011;18356;52.380;9.820;2022-08-02T10:47:34;4.07;;;1.67;;
31786;SDS011;18356;52.380;9.820;2022-08-02T10:50:01;7.72;;;1.85;;
31786;SDS011;18356;52.380;9.820;2022-08-02T10:52:28;6.28;;;1.85;;
31786;SDS011;18356;52.380;9.820;2022-08-02T10:54:59;4.25;;;1.50;;
31786;SDS011;18356;52.380;9.820;2022-08-02T10:57:26;4.78;;;1.80;;
31786;SDS011;18356;52.380;9.820;2022-08-02T11:02:41;3.80;;;1.60;;
31786;SDS011;18356;52.380;9.820;2022-08-02T11:05:08;4.05;;;1.77;;
31786;SDS011;18356;52.380;9.820;2022-08-02T11:07:39;3.00;;;1.67;;
31786;SDS011;18356;52.380;9.820;2022-08-02T11:13:00;6.18;;;1.90;;
31786;SDS011;18356;52.380;9.820;2022-08-02T11:15:26;5.35;;;2.22;;
31786;SDS011;18356;52.380;9.820;2022-08-02T11:17:53;3.80;;;1.80;;
31786;SDS011;18356;52.380;9.820;2022-08-02T11:20:20;3.97;;;1.60;;
31786;SDS011;18356;52.380;9.820;2022-08-02T11:22:47;3.45;;;1.60;;
31786;SDS011;18356;52.380;9.820;2022-08-02T11:27:50;6.53;;;1.77;;
31786;SDS011;18356;52.380;9.820;2022-08-02T11:30:16;4.88;;;1.67;;
31786;SDS011;18356;52.380;9.820;2022-08-02T11:32:42;4.93;;;1.98;;
31786;SDS011;18356;52.380;9.820;2022-08-02T11:35:08;2.60;;;1.50;;
31786;SDS011;18356;52.380;9.820;2022-08-02T11:37:35;6.53;;;1.65;;
31786;SDS011;18356;52.380;9.820;2022-08-02T11:40:06;4.53;;;1.85;;
31786;SDS011;18356;52.380;9.820;2022-08-02T11:42:39;3.38;;;1.58;;
31786;SDS011;18356;52.380;9.820;2022-08-02T11:45:09;4.60;;;1.67;;
31786;SDS011;18356;52.380;9.820;2022-08-02T11:47:48;6.05;;;1.35;;
31786;SDS011;18356;52.380;9.820;2022-08-02T11:50:15;3.75;;;1.48;;
31786;SDS011;18356;52.380;9.820;2022-08-02T11:52:42;4.00;;;1.30;;
31786;SDS011;18356;52.380;9.820;2022-08-02T11:55:08;3.60;;;1.40;;
31786;SDS011;18356;52.380;9.820;2022-08-02T11:57:35;5.38;;;1.33;;
31786;SDS011;18356;52.380;9.820;2022-08-02T12:00:02;3.35;;;0.90;;
31786;SDS011;18356;52.380;9.820;2022-08-02T12:02:30;4.70;;;1.17;;
31786;SDS011;18356;52.380;9.820;2022-08-02T12:05:05;4.00;;;1.23;;
31786;SDS011;18356;52.380;9.820;2022-08-02T12:07:33;4.78;;;1.17;;
31786;SDS011;18356;52.380;9.820;2022-08-02T12:10:03;10.63;;;1.40;;
31786;SDS011;18356;52.380;9.820;2022-08-02T12:12:29;3.20;;;1.10;;
31786;SDS011;18356;52.380;9.820;2022-08-02T12:14:55;4.00;;;1.20;;
31786;SDS011;18356;52.380;9.820;2022-08-02T12:17:22;3.42;;;1.20;;
31786;SDS011;18356;52.380;9.820;2022-08-02T12:20:07;3.88;;;1.10;;
31786;SDS011;18356;52.380;9.820;2022-08-02T12:22:33;2.90;;;0.90;;
31786;SDS011;18356;52.380;9.820;2022-08-02T12:25:13;3.42;;;1.17;;
31786;SDS011;18356;52.380;9.820;2022-08-02T12:27:40;6.28;;;0.98;;
31786;SDS011;18356;52.380;9.820;2022-08-02T12:30:16;3.65;;;0.98;;
31786;SDS011;18356;52.380;9.820;2022-08-02T12:32:43;3.38;;;0.90;;
31786;SDS011;18356;52.380;9.820;2022-08-02T12:35:14;12.80;;;1.33;;
31786;SDS011;18356;52.380;9.820;2022-08-02T12:37:44;3.97;;;1.10;;
31786;SDS011;18356;52.380;9.820;2022-08-02T12:42:50;3.80;;;1.20;;
31786;SDS011;18356;52.380;9.820;2022-08-02T12:45:17;5.32;;;1.27;;
31786;SDS011;18356;52.380;9.820;2022-08-02T12:47:47;4.03;;;1.15;;
31786;SDS011;18356;52.380;9.820;2022-08-02T12:50:24;2.80;;;1.20;;
31786;SDS011;18356;52.380;9.820;2022-08-02T12:53:01;2.97;;;1.10;;
31786;SDS011;18356;52.380;9.820;2022-08-02T12:55:27;4.28;;;1.10;;
31786;SDS011;18356;52.380;9.820;2022-08-02T13:00:24;4.15;;;1.10;;
31786;SDS011;18356;52.380;9.820;2022-08-02T13:02:50;2.90;;;1.08;;
31786;SDS011;18356;52.380;9.820;2022-08-02T13:05:17;3.30;;;1.35;;
31786;SDS011;18356;52.380;9.820;2022-08-02T13:07:43;2.53;;;1.20;;
31786;SDS011;18356;52.380;9.820;2022-08-02T13:10:09;8.52;;;1.35;;
31786;SDS011;18356;52.380;9.820;2022-08-02T13:12:35;2.63;;;1.10;;
31786;SDS011;18356;52.380;9.820;2022-08-02T13:15:04;3.70;;;1.40;;
31786;SDS011;18356;52.380;9.820;2022-08-02T13:17:30;4.47;;;1.17;;
31786;SDS011;18356;52.380;9.820;2022-08-02T13:19:56;5.13;;;1.27;;
31786;SDS011;18356;52.380;9.820;2022-08-02T13:22:22;4.03;;;1.08;;
31786;SDS011;18356;52.380;9.820;2022-08-02T13:24:48;3.90;;;1.38;;
31786;SDS011;18356;52.380;9.820;2022-08-02T13:27:15;3.72;;;1.50;;
31786;SDS011;18356;52.380;9.820;2022-08-02T13:29:41;3.80;;;1.30;;
31786;SDS011;18356;52.380;9.820;2022-08-02T13:32:08;2.85;;;1.30;;
31786;SDS011;18356;52.380;9.820;2022-08-02T13:34:34;3.17;;;1.20;;
31786;SDS011;18356;52.380;9.820;2022-08-02T13:37:00;2.90;;;1.02;;
31786;SDS011;18356;52.380;9.820;2022-08-02T13:39:27;4.43;;;1.33;;
31786;SDS011;18356;52.380;9.820;2022-08-02T13:41:53;3.05;;;1.10;;
31786;SDS011;18356;52.380;9.820;2022-08-02T13:44:19;8.93;;;1.33;;
31786;SDS011;18356;52.380;9.820;2022-08-02T13:46:45;4.05;;;1.20;;
31786;SDS011;18356;52.380;9.820;2022-08-02T13:49:12;5.22;;;1.40;;
31786;SDS011;18356;52.380;9.820;2022-08-02T13:51:38;8.32;;;1.20;;
31786;SDS011;18356;52.380;9.820;2022-08-02T13:54:04;3.33;;;1.25;;
31786;SDS011;18356;52.380;9.820;2022-08-02T13:56:30;2.38;;;1.23;;
31786;SDS011;18356;52.380;9.820;2022-08-02T13:58:56;5.50;;;1.10;;
31786;SDS011;18356;52.380;9.820;2022-08-02T14:01:27;4.05;;;1.10;;
31786;SDS011;18356;52.380;9.820;2022-08-02T14:03:53;14.93;;;2.17;;
31786;SDS011;18356;52.380;9.820;2022-08-02T14:06:20;9.27;;;2.97;;
31786;SDS011;18356;52.380;9.820;2022-08-02T14:08:46;3.42;;;1.50;;
31786;SDS011;18356;52.380;9.820;2022-08-02T14:11:12;4.97;;;1.38;;
31786;SDS011;18356;52.380;9.820;2022-08-02T14:13:38;2.85;;;1.30;;
31786;SDS011;18356;52.380;9.820;2022-08-02T14:16:04;6.78;;;1.50;;
31786;SDS011;18356;52.380;9.820;2022-08-02T14:18:31;3.10;;;1.20;;
31786;SDS011;18356;52.380;9.820;2022-08-02T14:20:57;4.20;;;1.45;;
31786;SDS011;18356;52.380;9.820;2022-08-02T14:23:23;4.63;;;1.63;;
31786;SDS011;18356;52.380;9.820;2022-08-02T14:25:49;3.83;;;1.25;;
31786;SDS011;18356;52.380;9.820;2022-08-02T14:28:15;4.70;;;1.35;;
31786;SDS011;18356;52.380;9.820;2022-08-02T14:30:41;3.05;;;1.10;;
31786;SDS011;18356;52.380;9.820;2022-08-02T14:33:07;5.03;;;1.20;;
31786;SDS011;18356;52.380;9.820;2022-08-02T14:35:34;3.13;;;1.27;;
31786;SDS011;18356;52.380;9.820;2022-08-02T14:38:00;6.25;;;1.50;;
31786;SDS011;18356;52.380;9.820;2022-08-02T14:40:26;2.47;;;1.25;;
31786;SDS011;18356;52.380;9.820;2022-08-02T14:42:52;5.85;;;1.20;;
31786;SDS011;18356;52.380;9.820;2022-08-02T14:45:19;6.10;;;1.60;;
31786;SDS011;18356;52.380;9.820;2022-08-02T14:47:50;3.55;;;1.48;;
31786;SDS011;18356;52.380;9.820;2022-08-02T14:50:16;3.45;;;1.33;;
31786;SDS011;18356;52.380;9.820;2022-08-02T14:52:43;3.05;;;1.38;;
31786;SDS011;18356;52.380;9.820;2022-08-02T14:55:10;5.18;;;1.38;;
31786;SDS011;18356;52.380;9.820;2022-08-02T14:57:36;3.25;;;1.20;;
31786;SDS011;18356;52.380;9.820;2022-08-02T15:00:02;5.00;;;1.67;;
31786;SDS011;18356;52.380;9.820;2022-08-02T15:02:29;7.15;;;1.42;;
31786;SDS011;18356;52.380;9.820;2022-08-02T15:04:55;5.30;;;1.30;;
31786;SDS011;18356;52.380;9.820;2022-08-02T15:07:21;4.50;;;1.45;;
31786;SDS011;18356;52.380;9.820;2022-08-02T15:09:47;3.38;;;1.60;;
31786;SDS011;18356;52.380;9.820;2022-08-02T15:12:14;3.50;;;1.30;;
31786;SDS011;18356;52.380;9.820;2022-08-02T15:14:40;5.05;;;1.20;;